Time;durP1;ratioP1;P1;durP2;ratioP2;P2;SDS_P1;SDS_P2;PMS_P1;PMS_P2;Temp;Humidity;BMP_temperature;BMP_pressure;BME280_temperature;BME280_humidity;BME280_pressure;Samples;Min_cycle;Max_cycle;Signal;HPM_P1;HPM_P2
2023/08/05 00:00:40;;;;;;;8.48;4.78;;;24.70;74.40;;;;;;6127169;28;81732;-64
2023/08/05 00:03:41;;;;;;;11.93;5.85;;;24.70;74.10;;;;;;6128983;28;80530;-64
2023/08/05 00:06:42;;;;;;;11.95;5.32;;;24.70;74.00;;;;;;6128384;28;81065;-64
2023/08/05 00:09:42;;;;;;;8.88;5.32;;;24.70;73.80;;;;;;6120361;28;82815;-64
2023/08/05 00:12:43;;;;;;;9.80;5.45;;;24.70;73.70;;;;;;6142563;28;81631;-64
2023/08/05 00:15:43;;;;;;;19.13;4.63;;;24.70;74.10;;;;;;6120895;28;82883;-65
2023/08/05 00:18:44;;;;;;;9.88;4.85;;;24.70;74.10;;;;;;6128110;28;80193;-64
2023/08/05 00:21:44;;;;;;;10.50;4.68;;;24.70;74.30;;;;;;6126138;28;80655;-64
2023/08/05 00:24:45;;;;;;;8.50;4.60;;;24.70;74.20;;;;;;6147124;28;80934;-47
2023/08/05 00:27:45;;;;;;;9.00;5.35;;;24.70;74.50;;;;;;6128098;28;80468;-50
2023/08/05 00:30:46;;;;;;;7.57;4.55;;;24.70;74.60;;;;;;6106145;28;83242;-51
2023/08/05 00:33:46;;;;;;;12.90;5.30;;;24.60;75.00;;;;;;6126739;28;80940;-48
2023/08/05 00:36:47;;;;;;;11.70;4.63;;;24.70;74.80;;;;;;6119546;28;80940;-47
2023/08/05 00:39:47;;;;;;;9.15;4.60;;;24.70;74.40;;;;;;6124208;28;83120;-46
2023/08/05 00:42:48;;;;;;;8.38;4.65;;;24.60;74.70;;;;;;6098757;28;82126;-47
2023/08/05 00:45:48;;;;;;;8.02;4.93;;;24.60;74.60;;;;;;6104943;28;80988;-46
2023/08/05 00:48:49;;;;;;;11.02;5.28;;;24.60;75.20;;;;;;6116577;28;80729;-48
2023/08/05 00:51:50;;;;;;;8.18;4.75;;;24.60;75.00;;;;;;6118627;28;82505;-49
2023/08/05 00:54:50;;;;;;;7.07;4.78;;;24.60;75.30;;;;;;6127023;28;83810;-48
2023/08/05 00:57:51;;;;;;;8.93;4.45;;;24.60;75.30;;;;;;6118546;28;80929;-47
2023/08/05 01:00:52;;;;;;;10.55;4.30;;;24.60;75.20;;;;;;6127659;28;80156;-48
2023/08/05 01:03:52;;;;;;;7.85;4.78;;;24.60;74.90;;;;;;6116674;28;83334;-50
2023/08/05 01:06:53;;;;;;;13.18;4.55;;;24.60;74.90;;;;;;6107788;28;80970;-49
2023/08/05 01:09:53;;;;;;;5.25;4.22;;;24.50;75.00;;;;;;6109610;28;82445;-46
2023/08/05 01:12:54;;;;;;;10.90;4.45;;;24.50;75.10;;;;;;6095763;28;82303;-50
2023/08/05 01:15:54;;;;;;;8.57;4.85;;;24.50;75.30;;;;;;6127824;28;80597;-50
2023/08/05 01:18:55;;;;;;;6.43;4.03;;;24.50;75.50;;;;;;6117794;28;80320;-53
2023/08/05 01:21:56;;;;;;;10.13;4.72;;;24.50;75.60;;;;;;6137023;28;82157;-64
2023/08/05 01:24:56;;;;;;;7.07;4.55;;;24.50;75.80;;;;;;6136483;28;81840;-64
2023/08/05 01:27:57;;;;;;;9.20;4.45;;;24.50;75.50;;;;;;6170828;28;82119;-67
2023/08/05 01:30:57;;;;;;;10.55;4.47;;;24.50;75.70;;;;;;6130694;28;81492;-68
2023/08/05 01:33:58;;;;;;;10.52;4.88;;;24.50;75.90;;;;;;6121067;28;82116;-67
2023/08/05 01:36:58;;;;;;;6.88;4.63;;;24.50;76.30;;;;;;6137919;28;81158;-65
2023/08/05 01:39:59;;;;;;;5.95;3.92;;;24.50;75.50;;;;;;6116601;28;82178;-65
2023/08/05 01:43:00;;;;;;;7.05;4.38;;;24.50;75.60;;;;;;6132178;28;83533;-68
2023/08/05 01:46:00;;;;;;;9.02;4.40;;;24.50;75.70;;;;;;6105990;28;81506;-68
2023/08/05 01:49:01;;;;;;;6.55;4.40;;;24.50;75.90;;;;;;6126341;28;80501;-67
2023/08/05 01:52:01;;;;;;;6.85;4.22;;;24.50;76.30;;;;;;6126733;28;80600;-66
2023/08/05 01:55:02;;;;;;;6.88;4.07;;;24.50;76.00;;;;;;6102279;28;80863;-66
2023/08/05 01:58:03;;;;;;;7.30;4.43;;;24.50;75.50;;;;;;6103998;28;80782;-67
2023/08/05 02:01:03;;;;;;;6.50;4.35;;;24.50;75.50;;;;;;6106359;28;82844;-67
2023/08/05 02:04:04;;;;;;;7.20;4.43;;;24.50;75.70;;;;;;6109618;28;80391;-66
2023/08/05 02:07:04;;;;;;;5.80;3.63;;;24.50;75.80;;;;;;6116273;28;82174;-68
2023/08/05 02:10:05;;;;;;;7.22;4.47;;;24.50;75.60;;;;;;6144376;28;83424;-65
2023/08/05 02:13:05;;;;;;;5.85;4.00;;;24.50;75.90;;;;;;6120386;28;81448;-64
2023/08/05 02:16:06;;;;;;;7.30;4.07;;;24.50;76.20;;;;;;6106943;28;84153;-63
2023/08/05 02:19:06;;;;;;;7.45;4.07;;;24.50;76.50;;;;;;6123648;28;83244;-64
2023/08/05 02:22:07;;;;;;;6.78;4.22;;;24.50;77.40;;;;;;6103195;28;82485;-63
2023/08/05 02:25:07;;;;;;;6.57;3.58;;;24.50;76.40;;;;;;6115322;28;83088;-62
2023/08/05 02:28:08;;;;;;;8.20;4.45;;;24.50;76.30;;;;;;6110980;28;80796;-62
2023/08/05 02:31:08;;;;;;;5.97;3.90;;;24.50;76.40;;;;;;6120745;28;81869;-63
2023/08/05 02:34:10;;;;;;;6.80;4.15;;;24.50;76.50;;;;;;6130395;28;81323;-64
2023/08/05 02:37:10;;;;;;;10.82;5.15;;;24.50;76.60;;;;;;6130171;28;84595;-64
2023/08/05 02:40:11;;;;;;;7.70;4.63;;;24.50;76.60;;;;;;6131624;28;81292;-66
2023/08/05 02:43:12;;;;;;;8.63;4.32;;;24.40;76.20;;;;;;6117385;28;82809;-67
2023/08/05 02:46:12;;;;;;;7.78;4.13;;;24.50;76.10;;;;;;6120610;28;80791;-66
2023/08/05 02:49:13;;;;;;;5.90;3.53;;;24.40;76.00;;;;;;6098483;28;82991;-64
2023/08/05 02:52:13;;;;;;;8.40;3.55;;;24.40;75.80;;;;;;6127302;28;82744;-64
2023/08/05 02:55:14;;;;;;;6.63;3.55;;;24.40;75.80;;;;;;6107173;28;81076;-63
2023/08/05 02:58:14;;;;;;;7.70;3.95;;;24.40;75.70;;;;;;6099371;28;81727;-64
2023/08/05 03:01:16;;;;;;;6.05;3.63;;;24.40;75.80;;;;;;6123668;28;83464;-64
2023/08/05 03:04:16;;;;;;;8.73;3.97;;;24.40;75.70;;;;;;6105460;28;83075;-63
2023/08/05 03:07:17;;;;;;;13.27;4.32;;;24.40;75.60;;;;;;6119065;28;83745;-66
2023/08/05 03:10:17;;;;;;;8.75;4.22;;;24.40;75.60;;;;;;6096702;28;80787;-65
2023/08/05 03:13:18;;;;;;;5.68;3.78;;;24.40;76.00;;;;;;6115160;28;83324;-64
2023/08/05 03:16:18;;;;;;;6.40;3.65;;;24.40;76.00;;;;;;6118755;28;80338;-64
2023/08/05 03:19:29;;;;;;;6.32;3.90;;;24.40;76.10;;;;;;6106252;28;83654;-64
2023/08/05 03:22:31;;;;;;;5.53;3.72;;;24.40;77.10;;;;;;6122279;28;81025;-67
2023/08/05 03:25:32;;;;;;;7.40;3.97;;;24.30;78.20;;;;;;6103954;28;83188;-66
2023/08/05 03:28:37;;;;;;;10.38;3.55;;;24.20;78.40;;;;;;6116654;28;83629;-54
2023/08/05 03:31:39;;;;;;;7.47;4.30;;;24.20;78.40;;;;;;6138034;28;82977;-55
2023/08/05 03:34:40;;;;;;;12.10;5.18;;;24.20;78.70;;;;;;6128006;28;83294;-56
2023/08/05 03:37:41;;;;;;;12.43;4.63;;;24.00;80.20;;;;;;6106287;28;82433;-54
2023/08/05 03:40:41;;;;;;;12.02;3.80;;;23.80;81.50;;;;;;6104850;28;81711;-55
2023/08/05 03:43:42;;;;;;;6.53;4.10;;;23.90;81.70;;;;;;6110070;28;81912;-50
2023/08/05 03:46:42;;;;;;;14.80;4.05;;;24.00;81.30;;;;;;6113757;28;81603;-56
2023/08/05 03:49:43;;;;;;;12.52;4.38;;;24.00;80.80;;;;;;6132291;28;80438;-55
2023/08/05 03:52:44;;;;;;;7.32;4.38;;;24.10;80.80;;;;;;6110165;28;80803;-50
2023/08/05 03:55:45;;;;;;;7.35;3.72;;;24.10;80.60;;;;;;6122004;28;83332;-58
2023/08/05 03:58:46;;;;;;;12.13;4.07;;;24.10;80.50;;;;;;6134115;28;83360;-54
2023/08/05 04:01:47;;;;;;;10.18;4.07;;;24.20;80.70;;;;;;6114851;28;82186;-55
2023/08/05 04:04:48;;;;;;;9.55;4.13;;;24.10;80.30;;;;;;6112769;28;81132;-56
2023/08/05 04:07:48;;;;;;;7.85;4.05;;;24.20;80.30;;;;;;6109827;28;82508;-52
2023/08/05 04:10:49;;;;;;;10.68;4.82;;;24.20;79.80;;;;;;6113898;28;81508;-56
2023/08/05 04:13:52;;;;;;;6.57;3.92;;;24.20;79.70;;;;;;6113323;28;81393;-55
2023/08/05 04:16:54;;;;;;;6.97;4.15;;;24.20;79.60;;;;;;6115736;28;80334;-54
2023/08/05 04:19:55;;;;;;;6.65;4.18;;;24.20;79.80;;;;;;6115967;28;86391;-57
2023/08/05 04:22:56;;;;;;;7.20;4.10;;;24.20;79.80;;;;;;6107435;28;82781;-47
2023/08/05 04:25:58;;;;;;;7.50;3.90;;;24.20;79.60;;;;;;6116310;28;81019;-48
2023/08/05 04:28:58;;;;;;;11.20;4.07;;;24.20;79.60;;;;;;6106162;28;82415;-50
2023/08/05 04:31:59;;;;;;;8.52;4.15;;;24.20;79.30;;;;;;6113841;28;81033;-47
2023/08/05 04:34:59;;;;;;;13.10;5.13;;;24.20;79.20;;;;;;6104952;28;82440;-47
2023/08/05 04:38:00;;;;;;;5.93;3.90;;;24.20;79.10;;;;;;6115365;28;80182;-49
2023/08/05 04:41:00;;;;;;;9.85;4.43;;;24.20;79.20;;;;;;6116722;28;80691;-47
2023/08/05 04:44:02;;;;;;;14.20;4.82;;;24.20;79.30;;;;;;6107533;28;81049;-48
2023/08/05 04:47:02;;;;;;;10.18;4.95;;;24.20;79.20;;;;;;6106589;28;81426;-46
2023/08/05 04:50:03;;;;;;;11.20;4.72;;;24.10;79.20;;;;;;6093032;28;80385;-47
2023/08/05 04:53:03;;;;;;;12.10;5.15;;;24.20;79.70;;;;;;6106716;28;80667;-46
2023/08/05 04:56:04;;;;;;;9.60;5.20;;;24.20;79.90;;;;;;6116424;28;82211;-45
2023/08/05 04:59:04;;;;;;;10.48;5.18;;;24.10;79.80;;;;;;6125790;28;80629;-46
2023/08/05 05:02:05;;;;;;;10.30;4.90;;;24.10;80.10;;;;;;6124159;28;84443;-55
2023/08/05 05:05:05;;;;;;;7.75;4.63;;;24.10;80.10;;;;;;6128402;28;87243;-56
2023/08/05 05:08:06;;;;;;;9.60;4.63;;;24.10;80.40;;;;;;6125769;28;81702;-56
2023/08/05 05:11:09;;;;;;;10.00;5.25;;;24.20;80.40;;;;;;6115111;28;80484;-55
2023/08/05 05:14:10;;;;;;;13.05;5.65;;;24.20;80.30;;;;;;6124726;28;80899;-53
2023/08/05 05:17:10;;;;;;;8.25;5.50;;;24.00;80.90;;;;;;6115059;28;82166;-53
2023/08/05 05:20:11;;;;;;;10.15;6.00;;;24.00;81.40;;;;;;6116292;28;80501;-56
2023/08/05 05:23:11;;;;;;;11.23;5.47;;;24.10;81.20;;;;;;6104886;28;84708;-53
2023/08/05 05:26:12;;;;;;;13.18;5.30;;;24.00;81.50;;;;;;6105350;28;82973;-55
2023/08/05 05:29:12;;;;;;;9.93;5.18;;;24.10;81.30;;;;;;6113866;28;80666;-48
2023/08/05 05:32:13;;;;;;;10.77;5.30;;;24.10;81.30;;;;;;6103508;28;82298;-55
2023/08/05 05:35:13;;;;;;;10.65;4.93;;;24.10;81.20;;;;;;6129292;28;82060;-53
2023/08/05 05:38:14;;;;;;;11.32;4.55;;;24.10;81.00;;;;;;6113401;28;82944;-56
2023/08/05 05:41:16;;;;;;;8.68;4.80;;;24.10;80.70;;;;;;6124650;28;80527;-52
2023/08/05 05:44:16;;;;;;;8.35;4.25;;;24.10;80.50;;;;;;6125275;28;80602;-53
2023/08/05 05:47:17;;;;;;;6.07;3.63;;;24.10;80.80;;;;;;6075287;28;1200213;-53
2023/08/05 05:50:19;;;;;;;8.50;4.10;;;24.00;81.20;;;;;;6123659;28;80567;-54
2023/08/05 05:53:19;;;;;;;8.90;4.07;;;23.90;81.40;;;;;;6101962;28;82140;-52
2023/08/05 05:56:20;;;;;;;8.45;4.05;;;23.90;81.50;;;;;;6136232;28;80498;-51
2023/08/05 05:59:20;;;;;;;7.57;4.30;;;23.90;81.60;;;;;;6126261;28;81359;-56
2023/08/05 06:02:21;;;;;;;7.25;3.90;;;23.90;81.80;;;;;;6141747;28;81630;-55
2023/08/05 06:05:21;;;;;;;7.80;3.78;;;23.90;81.60;;;;;;6126063;28;80481;-55
2023/08/05 06:08:22;;;;;;;8.65;3.97;;;24.00;81.60;;;;;;6119870;28;82272;-49
2023/08/05 06:11:22;;;;;;;11.18;3.90;;;24.00;81.40;;;;;;6126992;28;80539;-50
2023/08/05 06:14:23;;;;;;;10.27;6.07;;;24.00;81.30;;;;;;6119236;28;80666;-46
2023/08/05 06:17:23;;;;;;;12.48;5.95;;;24.00;81.30;;;;;;6129378;28;80626;-47
2023/08/05 06:20:24;;;;;;;10.40;5.03;;;24.00;81.30;;;;;;6116994;28;80703;-47
2023/08/05 06:23:24;;;;;;;9.82;4.90;;;24.00;81.90;;;;;;6128163;28;81288;-48
2023/08/05 06:26:26;;;;;;;9.05;4.43;;;24.00;81.10;;;;;;6127229;28;80241;-50
2023/08/05 06:29:26;;;;;;;9.77;4.10;;;24.00;81.20;;;;;;6117651;28;80620;-48
2023/08/05 06:32:27;;;;;;;12.07;5.18;;;24.00;81.00;;;;;;6133190;28;80573;-46
2023/08/05 06:35:27;;;;;;;11.32;4.97;;;24.00;81.10;;;;;;6124513;28;80887;-48
2023/08/05 06:38:28;;;;;;;10.60;4.35;;;24.00;81.20;;;;;;6127064;28;80678;-48
2023/08/05 06:41:29;;;;;;;7.75;3.72;;;24.00;81.50;;;;;;6121107;28;80690;-48
2023/08/05 06:44:30;;;;;;;9.52;4.13;;;24.00;81.80;;;;;;6117155;28;80318;-49
2023/08/05 06:47:31;;;;;;;8.07;3.53;;;24.00;81.90;;;;;;6129644;28;88895;-46
2023/08/05 06:50:31;;;;;;;6.43;3.53;;;24.00;81.80;;;;;;6121158;28;81027;-48
2023/08/05 06:53:33;;;;;;;9.02;3.65;;;24.00;81.70;;;;;;6130771;28;80298;-45
2023/08/05 06:56:33;;;;;;;7.50;4.15;;;24.00;81.80;;;;;;6120018;28;83154;-49
2023/08/05 06:59:34;;;;;;;6.68;3.42;;;24.00;82.10;;;;;;6130137;28;84071;-46
2023/08/05 07:02:34;;;;;;;8.43;4.18;;;24.00;81.90;;;;;;6120271;28;81087;-46
2023/08/05 07:05:36;;;;;;;7.10;3.70;;;24.00;82.20;;;;;;6117538;28;83310;-47
2023/08/05 07:08:36;;;;;;;7.13;4.20;;;24.00;82.60;;;;;;6129421;28;80565;-45
2023/08/05 07:11:37;;;;;;;10.52;4.07;;;24.00;82.50;;;;;;6107724;28;80354;-46
2023/08/05 07:14:38;;;;;;;5.95;3.90;;;23.90;82.60;;;;;;6125885;28;80721;-46
2023/08/05 07:17:38;;;;;;;10.38;3.95;;;23.90;82.80;;;;;;6119307;28;82672;-50
2023/08/05 07:20:39;;;;;;;12.48;6.82;;;23.90;83.00;;;;;;6130944;28;81750;-46
2023/08/05 07:23:39;;;;;;;12.35;5.32;;;24.00;83.30;;;;;;6112455;28;81036;-45
2023/08/05 07:26:40;;;;;;;11.57;6.13;;;23.90;83.70;;;;;;6128064;28;80426;-53
2023/08/05 07:29:40;;;;;;;17.52;6.15;;;23.90;84.70;;;;;;6146149;28;80734;-55
2023/08/05 07:32:41;;;;;;;8.05;5.32;;;23.90;84.70;;;;;;6128181;28;80567;-55
2023/08/05 07:35:41;;;;;;;10.02;5.30;;;23.90;85.20;;;;;;6132054;28;80833;-54
2023/08/05 07:38:44;;;;;;;9.90;5.07;;;23.90;85.20;;;;;;6120684;28;82190;-50
2023/08/05 07:41:45;;;;;;;10.48;4.53;;;23.90;85.30;;;;;;6121223;28;81397;-54
2023/08/05 07:44:46;;;;;;;6.13;4.30;;;23.80;86.00;;;;;;6108615;28;80558;-54
2023/08/05 07:47:46;;;;;;;9.63;4.60;;;23.90;85.60;;;;;;6130538;28;81041;-53
2023/08/05 07:50:47;;;;;;;6.90;3.88;;;23.80;86.10;;;;;;6127069;28;82097;-55
2023/08/05 07:53:52;;;;;;;8.27;4.43;;;23.80;86.50;;;;;;6118749;28;80520;-58
2023/08/05 07:56:54;;;;;;;4.80;3.30;;;23.80;86.30;;;;;;6128612;28;80998;-57
2023/08/05 07:59:55;;;;;;;9.13;4.32;;;23.90;86.80;;;;;;6119317;28;80560;-55
2023/08/05 08:02:55;;;;;;;8.68;4.60;;;23.90;86.10;;;;;;6122993;28;80302;-58
2023/08/05 08:05:57;;;;;;;10.35;4.88;;;23.80;85.60;;;;;;6108870;28;82384;-51
2023/08/05 08:08:58;;;;;;;10.55;5.57;;;23.90;86.10;;;;;;6127236;28;80812;-54
2023/08/05 08:11:58;;;;;;;11.75;6.90;;;24.00;85.70;;;;;;6124186;28;80670;-55
2023/08/05 08:14:59;;;;;;;12.43;7.43;;;23.90;85.80;;;;;;6121703;28;81861;-56
2023/08/05 08:17:59;;;;;;;8.98;6.78;;;24.00;85.30;;;;;;6128868;28;81207;-55
2023/08/05 08:21:00;;;;;;;10.57;6.80;;;24.00;84.90;;;;;;6114108;28;81297;-56
2023/08/05 08:24:00;;;;;;;8.48;6.30;;;24.10;84.40;;;;;;6127039;28;80487;-56
2023/08/05 08:27:01;;;;;;;11.38;6.30;;;24.10;84.60;;;;;;6118956;28;83805;-54
2023/08/05 08:30:01;;;;;;;10.18;6.10;;;24.10;84.30;;;;;;6126809;28;80387;-54
2023/08/05 08:33:02;;;;;;;11.77;5.30;;;24.10;84.20;;;;;;6126234;28;80970;-54
2023/08/05 08:36:02;;;;;;;8.50;5.65;;;24.00;84.20;;;;;;6117609;28;80793;-52
2023/08/05 08:39:03;;;;;;;7.43;5.45;;;24.00;83.70;;;;;;6126202;28;80596;-53
2023/08/05 08:42:04;;;;;;;7.70;5.22;;;24.10;83.40;;;;;;6120913;28;80955;-49
2023/08/05 08:45:06;;;;;;;9.73;5.78;;;24.10;83.20;;;;;;6120449;28;80674;-51
2023/08/05 08:48:06;;;;;;;6.72;5.07;;;24.20;83.00;;;;;;6117014;28;82415;-53
2023/08/05 08:51:07;;;;;;;6.13;4.32;;;24.20;82.70;;;;;;6129898;28;80557;-51
2023/08/05 08:54:07;;;;;;;4.97;3.75;;;24.20;82.30;;;;;;6131070;28;81886;-47
2023/08/05 08:57:09;;;;;;;6.60;4.50;;;24.10;82.10;;;;;;6112279;28;80303;-46
2023/08/05 09:00:09;;;;;;;6.38;4.15;;;24.10;82.40;;;;;;6118494;28;81068;-57
2023/08/05 09:03:10;;;;;;;8.13;4.40;;;24.10;82.80;;;;;;6104220;28;81207;-55
2023/08/05 09:06:10;;;;;;;5.90;4.57;;;24.10;83.00;;;;;;6122688;28;80888;-55
2023/08/05 09:09:11;;;;;;;6.22;3.78;;;24.10;83.30;;;;;;6126644;28;80772;-50
2023/08/05 09:12:12;;;;;;;7.47;4.20;;;24.10;83.10;;;;;;6128416;28;82484;-53
2023/08/05 09:15:12;;;;;;;6.10;4.65;;;24.10;82.90;;;;;;6116984;28;83324;-54
2023/08/05 09:18:13;;;;;;;5.68;3.83;;;24.10;82.90;;;;;;6112294;28;80303;-49
2023/08/05 09:21:13;;;;;;;5.68;3.97;;;24.10;82.80;;;;;;6116392;28;81037;-51
2023/08/05 09:24:14;;;;;;;6.53;3.90;;;24.20;82.90;;;;;;6115435;28;80721;-48
2023/08/05 09:27:14;;;;;;;5.70;3.83;;;24.20;83.20;;;;;;6113420;28;80473;-48
2023/08/05 09:30:16;;;;;;;6.22;4.40;;;24.20;83.00;;;;;;6104299;28;82005;-49
2023/08/05 09:33:16;;;;;;;5.75;4.40;;;24.20;83.60;;;;;;6120034;28;81909;-50
2023/08/05 09:36:22;;;;;;;6.40;4.13;;;24.20;83.60;;;;;;6128631;28;80834;-68
2023/08/05 09:39:23;;;;;;;7.30;4.40;;;24.30;83.80;;;;;;6114666;28;81893;-67
2023/08/05 09:42:24;;;;;;;4.93;3.63;;;24.30;83.10;;;;;;6126241;28;80633;-64
2023/08/05 09:45:25;;;;;;;6.50;3.55;;;24.40;83.50;;;;;;6104355;28;81442;-73
2023/08/05 09:48:25;;;;;;;4.03;3.53;;;24.40;83.60;;;;;;6127256;28;81651;-66
2023/08/05 09:51:27;;;;;;;10.60;4.15;;;24.40;83.40;;;;;;6132628;28;83027;-69
2023/08/05 09:54:32;;;;;;;5.35;3.25;;;24.50;83.60;;;;;;6127126;28;81238;-66
2023/08/05 09:57:33;;;;;;;4.70;3.38;;;24.40;83.30;;;;;;6138310;28;80808;-65
2023/08/05 10:00:34;;;;;;;4.47;3.50;;;24.50;83.10;;;;;;6115972;28;80780;-68
2023/08/05 10:03:35;;;;;;;5.68;3.47;;;24.50;83.00;;;;;;6132613;28;81250;-68
2023/08/05 10:06:35;;;;;;;3.88;3.20;;;24.60;82.70;;;;;;6116155;28;81782;-67
2023/08/05 10:09:37;;;;;;;8.10;3.85;;;24.60;81.90;;;;;;6118784;28;81299;-67
2023/08/05 10:12:38;;;;;;;5.13;3.53;;;24.70;81.60;;;;;;6116276;28;81595;-63
2023/08/05 10:15:39;;;;;;;4.18;3.20;;;24.70;81.10;;;;;;6113057;28;83252;-63
2023/08/05 10:18:39;;;;;;;4.40;3.38;;;24.70;80.90;;;;;;6127947;28;80531;-63
2023/08/05 10:21:41;;;;;;;3.75;3.13;;;24.70;80.70;;;;;;6114749;28;80792;-64
2023/08/05 10:24:41;;;;;;;3.53;3.05;;;24.70;80.40;;;;;;6126218;28;80701;-65
2023/08/05 10:27:42;;;;;;;4.50;3.40;;;24.80;80.50;;;;;;6111332;28;84038;-62
2023/08/05 10:30:42;;;;;;;4.93;3.67;;;24.80;80.20;;;;;;6118624;28;84028;-64
2023/08/05 10:33:43;;;;;;;6.13;2.90;;;24.90;80.10;;;;;;6105367;28;81021;-63
2023/08/05 10:36:43;;;;;;;5.13;3.17;;;24.90;79.70;;;;;;6123756;28;81124;-63
2023/08/05 10:39:44;;;;;;;3.55;2.38;;;24.90;79.80;;;;;;6125320;28;81569;-63
2023/08/05 10:42:44;;;;;;;6.85;3.13;;;24.90;80.40;;;;;;6117948;28;80935;-64
2023/08/05 10:45:45;;;;;;;3.55;2.90;;;25.00;80.60;;;;;;6115100;28;81391;-64
2023/08/05 10:48:45;;;;;;;4.13;2.40;;;25.00;82.10;;;;;;6120510;28;80456;-51
2023/08/05 10:51:46;;;;;;;10.20;3.22;;;25.00;81.90;;;;;;6129756;28;80727;-52
2023/08/05 10:54:47;;;;;;;4.50;3.03;;;25.00;81.80;;;;;;6121777;28;84183;-51
2023/08/05 10:57:47;;;;;;;2.88;2.38;;;25.10;80.60;;;;;;6127272;28;82179;-51
2023/08/05 11:00:48;;;;;;;5.03;3.20;;;25.10;80.60;;;;;;6128439;28;80295;-50
2023/08/05 11:03:50;;;;;;;7.47;3.15;;;25.10;80.20;;;;;;6110709;28;82885;-50
2023/08/05 11:06:51;;;;;;;4.32;3.50;;;25.10;80.10;;;;;;6128131;28;80585;-49
2023/08/05 11:09:51;;;;;;;5.63;3.85;;;25.10;79.90;;;;;;6121859;28;83420;-66
2023/08/05 11:12:52;;;;;;;5.38;3.58;;;25.20;80.10;;;;;;6126903;28;80865;-67
2023/08/05 11:15:52;;;;;;;4.82;3.25;;;25.20;79.90;;;;;;6121566;28;81939;-66
2023/08/05 11:18:53;;;;;;;4.45;3.17;;;25.30;79.60;;;;;;6129783;28;83743;-67
2023/08/05 11:21:53;;;;;;;4.32;3.35;;;25.30;79.30;;;;;;6131621;28;80403;-65
2023/08/05 11:24:54;;;;;;;4.57;2.80;;;25.30;79.20;;;;;;6122901;28;82759;-68
2023/08/05 11:27:55;;;;;;;3.88;2.50;;;25.30;79.40;;;;;;6131362;28;82356;-69
2023/08/05 11:30:56;;;;;;;4.35;2.72;;;25.20;80.40;;;;;;6131533;28;82325;-64
2023/08/05 11:33:57;;;;;;;4.88;3.20;;;25.20;79.80;;;;;;6131934;28;81805;-67
2023/08/05 11:36:57;;;;;;;5.97;3.20;;;25.10;80.00;;;;;;6122288;28;81782;-68
2023/08/05 11:39:58;;;;;;;3.67;2.60;;;25.20;80.10;;;;;;6128647;28;80244;-68
2023/08/05 11:42:58;;;;;;;3.28;2.38;;;25.10;80.50;;;;;;6123662;28;80399;-71
2023/08/05 11:45:59;;;;;;;3.22;2.40;;;25.10;80.50;;;;;;6111081;28;82476;-54
2023/08/05 11:48:59;;;;;;;5.20;2.10;;;25.10;80.70;;;;;;6120317;28;80381;-50
2023/08/05 11:52:04;;;;;;;2.97;2.08;;;25.10;80.80;;;;;;6118227;28;82531;-50
2023/08/05 11:55:05;;;;;;;3.37;2.33;;;25.10;81.50;;;;;;6126468;28;80425;-49
2023/08/05 11:58:06;;;;;;;3.08;2.20;;;25.10;82.00;;;;;;6116989;28;82944;-49
2023/08/05 12:01:06;;;;;;;2.15;1.90;;;25.00;82.20;;;;;;6131335;28;80806;-50
2023/08/05 12:04:07;;;;;;;2.95;2.22;;;25.00;82.30;;;;;;6116177;28;81098;-61
2023/08/05 12:07:07;;;;;;;3.70;2.35;;;25.00;82.60;;;;;;6120723;28;82581;-60
2023/08/05 12:10:08;;;;;;;6.97;2.15;;;25.00;82.50;;;;;;6132100;28;80637;-63
2023/08/05 12:13:08;;;;;;;2.88;2.03;;;25.00;82.70;;;;;;6126558;28;83294;-63
2023/08/05 12:16:09;;;;;;;3.45;2.20;;;25.00;82.90;;;;;;6135090;28;81349;-63
2023/08/05 12:19:09;;;;;;;2.97;2.38;;;24.90;82.80;;;;;;6120517;28;81578;-65
2023/08/05 12:22:10;;;;;;;3.33;2.30;;;24.90;83.10;;;;;;6118703;28;80471;-65
2023/08/05 12:25:11;;;;;;;2.35;2.15;;;25.00;83.30;;;;;;6128667;28;81332;-64
2023/08/05 12:28:11;;;;;;;3.30;2.72;;;24.90;83.80;;;;;;6108115;28;81309;-64
2023/08/05 12:31:13;;;;;;;4.03;2.10;;;24.90;84.00;;;;;;6130782;28;81426;-65
2023/08/05 12:34:13;;;;;;;2.95;2.47;;;24.90;84.70;;;;;;6118538;28;80405;-66
2023/08/05 12:37:14;;;;;;;5.45;2.40;;;24.90;84.90;;;;;;6129707;28;80837;-64
2023/08/05 12:40:14;;;;;;;2.75;2.55;;;24.90;85.10;;;;;;6117052;28;80505;-67
2023/08/05 12:43:15;;;;;;;3.28;2.97;;;24.90;85.50;;;;;;6128288;28;80938;-68
2023/08/05 12:46:16;;;;;;;3.20;2.40;;;24.90;85.60;;;;;;6121050;28;80268;-64
2023/08/05 12:49:16;;;;;;;3.30;2.60;;;24.90;85.80;;;;;;6132704;28;80670;-63
2023/08/05 12:52:17;;;;;;;9.88;2.22;;;24.90;85.80;;;;;;6106428;28;80109;-70
2023/08/05 12:55:17;;;;;;;4.80;2.75;;;24.90;86.10;;;;;;6114321;28;82029;-68
2023/08/05 12:58:18;;;;;;;3.10;2.42;;;24.90;86.00;;;;;;6116576;28;80204;-61
2023/08/05 13:01:18;;;;;;;3.92;2.97;;;24.90;86.00;;;;;;6121670;28;82507;-63
2023/08/05 13:04:19;;;;;;;5.10;3.17;;;24.90;85.80;;;;;;6120946;28;80547;-61
2023/08/05 13:07:19;;;;;;;5.38;2.72;;;24.90;86.00;;;;;;6116843;28;80314;-65
2023/08/05 13:10:20;;;;;;;5.60;2.50;;;24.90;85.80;;;;;;6119701;28;82748;-63
2023/08/05 13:13:20;;;;;;;3.92;2.97;;;24.90;86.10;;;;;;6128573;28;80431;-66
2023/08/05 13:16:21;;;;;;;4.93;2.88;;;24.80;86.30;;;;;;6131398;28;82909;-67
2023/08/05 13:19:22;;;;;;;4.10;2.75;;;24.80;86.60;;;;;;6129558;28;80883;-69
2023/08/05 13:22:22;;;;;;;3.53;2.72;;;24.80;87.00;;;;;;6119354;28;83620;-68
2023/08/05 13:25:23;;;;;;;2.80;2.33;;;24.90;86.90;;;;;;6121651;28;80820;-69
2023/08/05 13:28:23;;;;;;;3.90;3.20;;;24.80;86.30;;;;;;6128107;28;80821;-66
2023/08/05 13:31:24;;;;;;;5.57;2.70;;;24.90;86.10;;;;;;6118298;28;80541;-68
2023/08/05 13:34:24;;;;;;;3.38;2.42;;;24.90;86.20;;;;;;6133288;28;81400;-62
2023/08/05 13:37:25;;;;;;;5.78;2.42;;;24.90;86.10;;;;;;6117011;28;81492;-64
2023/08/05 13:40:26;;;;;;;3.97;2.70;;;24.90;85.80;;;;;;6133684;28;81060;-63
2023/08/05 13:43:26;;;;;;;5.70;3.28;;;24.90;85.70;;;;;;6121489;28;81004;-59
2023/08/05 13:46:27;;;;;;;4.22;2.55;;;24.90;85.50;;;;;;6106266;28;80493;-59
2023/08/05 13:49:27;;;;;;;3.50;2.70;;;24.90;86.20;;;;;;6111905;28;80583;-63
2023/08/05 13:52:28;;;;;;;6.63;2.97;;;24.90;86.10;;;;;;6106349;28;80627;-52
2023/08/05 13:55:29;;;;;;;4.00;2.33;;;24.90;86.20;;;;;;6131697;28;80882;-56
2023/08/05 13:58:29;;;;;;;2.83;2.50;;;24.80;86.00;;;;;;6107621;28;80512;-54
2023/08/05 14:01:30;;;;;;;4.47;3.05;;;24.80;86.00;;;;;;6128668;28;80795;-56
2023/08/05 14:04:30;;;;;;;4.80;2.80;;;24.80;86.30;;;;;;6107187;28;82433;-58
2023/08/05 14:07:31;;;;;;;4.57;2.75;;;24.80;86.30;;;;;;6125738;28;81092;-58
2023/08/05 14:10:31;;;;;;;4.75;3.00;;;24.80;86.20;;;;;;6113103;28;81278;-59
2023/08/05 14:13:32;;;;;;;4.97;2.58;;;24.80;86.60;;;;;;6125527;28;83557;-59
2023/08/05 14:16:35;;;;;;;4.47;2.90;;;24.80;86.70;;;;;;6125859;28;81723;-58
2023/08/05 14:19:35;;;;;;;4.65;2.50;;;24.70;86.80;;;;;;6123487;28;81638;-58
2023/08/05 14:22:36;;;;;;;11.75;3.28;;;24.70;87.00;;;;;;6132331;28;80020;-58
2023/08/05 14:25:36;;;;;;;4.60;3.05;;;24.70;86.80;;;;;;6110829;28;81005;-58
2023/08/05 14:28:37;;;;;;;8.82;3.92;;;24.70;86.80;;;;;;6133944;28;80468;-55
2023/08/05 14:31:37;;;;;;;5.75;3.50;;;24.70;87.00;;;;;;6120202;28;80734;-57
2023/08/05 14:34:38;;;;;;;6.28;3.95;;;24.70;87.70;;;;;;6121262;28;80692;-57
2023/08/05 14:37:38;;;;;;;6.70;4.03;;;24.70;87.90;;;;;;6132291;28;80790;-58
2023/08/05 14:40:39;;;;;;;4.72;3.90;;;24.70;87.20;;;;;;6117887;28;80512;-58
2023/08/05 14:43:39;;;;;;;5.05;4.10;;;24.80;87.60;;;;;;6134056;28;80237;-57
2023/08/05 14:46:41;;;;;;;5.43;3.85;;;24.80;87.00;;;;;;6110845;28;83036;-57
2023/08/05 14:49:41;;;;;;;11.52;4.88;;;24.80;86.70;;;;;;6128308;28;80912;-65
2023/08/05 14:52:42;;;;;;;6.05;4.07;;;24.80;87.00;;;;;;6124063;28;80591;-64
2023/08/05 14:55:42;;;;;;;4.93;3.60;;;24.90;87.10;;;;;;6123957;28;81143;-64
2023/08/05 14:58:43;;;;;;;4.82;4.05;;;24.80;86.90;;;;;;6138537;28;80488;-68
2023/08/05 15:01:43;;;;;;;5.60;3.75;;;24.90;87.40;;;;;;6124999;28;82097;-65
2023/08/05 15:04:44;;;;;;;5.93;4.28;;;24.90;87.10;;;;;;6121634;28;83661;-65
2023/08/05 15:07:44;;;;;;;4.65;3.80;;;24.90;87.60;;;;;;6122547;28;82287;-67
2023/08/05 15:10:45;;;;;;;5.72;3.50;;;24.90;86.90;;;;;;6131970;28;81167;-68
2023/08/05 15:13:47;;;;;;;5.85;3.60;;;24.90;86.70;;;;;;6145403;28;80282;-68
2023/08/05 15:16:47;;;;;;;5.43;3.67;;;24.90;86.70;;;;;;6133819;28;81399;-68
2023/08/05 15:19:48;;;;;;;4.70;3.53;;;24.90;86.70;;;;;;6132458;28;80422;-66
2023/08/05 15:22:48;;;;;;;4.35;3.65;;;24.90;86.70;;;;;;6122993;28;82387;-70
2023/08/05 15:25:49;;;;;;;6.82;4.20;;;24.90;86.50;;;;;;6131163;28;80954;-52
2023/08/05 15:28:50;;;;;;;5.50;3.92;;;24.90;86.30;;;;;;6115348;28;81908;-53
2023/08/05 15:31:50;;;;;;;5.35;3.60;;;24.90;86.60;;;;;;6124830;28;81168;-51
2023/08/05 15:34:51;;;;;;;4.68;3.38;;;24.90;86.90;;;;;;6126287;28;80425;-52
2023/08/05 15:37:51;;;;;;;5.60;3.75;;;24.90;86.80;;;;;;6112972;28;80623;-54